Time;durP1;ratioP1;P1;durP2;ratioP2;P2;SDS_P1;SDS_P2;PMS_P1;PMS_P2;Temp;Humidity;BMP_temperature;BMP_pressure;BME280_temperature;BME280_humidity;BME280_pressure;Samples;Min_cycle;Max_cycle;Signal;HPM_P1;HPM_P2
2021/01/09 00:01:20;;;;;;;1.23;1.13;;;;;;;1.09;100.00;99266.12;3800661;77;383765;-76
2021/01/09 00:06:43;;;;;;;0.90;0.63;;;;;;;1.04;100.00;99269.83;3801131;77;383572;-77
2021/01/09 00:12:07;;;;;;;2.30;2.10;;;;;;;0.91;100.00;99272.23;3800055;76;396121;-76
2021/01/09 00:17:28;;;;;;;1.67;1.43;;;;;;;1.06;100.00;99271.61;3800906;74;396075;-76
2021/01/09 00:22:49;;;;;;;0.93;0.83;;;;;;;0.99;100.00;99273.30;3801076;77;383583;-77
2021/01/09 00:28:10;;;;;;;1.40;0.90;;;;;;;0.98;100.00;99273.06;3800720;76;383541;-77
2021/01/09 00:33:32;;;;;;;1.20;1.10;;;;;;;1.01;100.00;99283.23;3800784;77;391872;-76
2021/01/09 00:38:54;;;;;;;0.90;0.77;;;;;;;0.86;100.00;99279.21;3801241;76;392095;-76
2021/01/09 00:44:16;;;;;;;0.90;0.73;;;;;;;0.88;100.00;99282.39;3800799;77;392060;-77
2021/01/09 00:49:37;;;;;;;0.80;0.40;;;;;;;0.91;100.00;99295.83;3801363;77;383840;-77
2021/01/09 00:54:59;;;;;;;1.47;1.10;;;;;;;0.93;100.00;99295.72;3800598;76;387729;-77
2021/01/09 01:00:20;;;;;;;1.57;1.27;;;;;;;0.88;100.00;99297.28;3801080;76;383785;-77
2021/01/09 01:05:47;;;;;;;2.70;1.37;;;;;;;0.96;100.00;99306.45;3800690;77;383832;-77
2021/01/09 01:11:10;;;;;;;2.13;1.27;;;;;;;0.94;100.00;99308.69;3801550;74;387685;-77
2021/01/09 01:16:31;;;;;;;1.60;1.50;;;;;;;0.97;100.00;99316.16;3800081;76;396391;-77
2021/01/09 01:21:52;;;;;;;1.77;1.43;;;;;;;0.92;100.00;99320.43;3800163;76;396095;-77
2021/01/09 01:27:13;;;;;;;1.63;1.40;;;;;;;0.93;100.00;99316.03;3799715;77;396076;-77
2021/01/09 01:32:35;;;;;;;2.30;2.10;;;;;;;0.91;100.00;99321.55;3800209;77;396470;-76
2021/01/09 01:37:56;;;;;;;1.53;1.43;;;;;;;0.77;100.00;99329.70;3800266;77;396143;-76
2021/01/09 01:43:17;;;;;;;1.53;1.43;;;;;;;0.82;100.00;99332.42;3800050;76;396672;-77
2021/01/09 01:48:39;;;;;;;1.20;1.10;;;;;;;0.75;100.00;99331.92;3800458;77;393996;-76
2021/01/09 01:54:00;;;;;;;1.73;1.57;;;;;;;0.77;100.00;99339.95;3800720;76;383580;-77
2021/01/09 01:59:21;;;;;;;1.30;1.17;;;;;;;0.65;100.00;99340.45;3800537;76;384133;-77
2021/01/09 02:04:44;;;;;;;1.53;1.43;;;;;;;0.73;100.00;99340.96;3799947;76;393190;-77
2021/01/09 02:10:07;;;;;;;3.10;2.33;;;;;;;0.87;100.00;99334.95;3773799;76;383644;-76
2021/01/09 02:15:29;;;;;;;1.77;1.67;;;;;;;0.91;100.00;99343.22;3800907;76;383572;-77
2021/01/09 02:20:52;;;;;;;4.83;1.47;;;;;;;0.86;100.00;99348.27;3800127;77;396319;-77
2021/01/09 02:26:14;;;;;;;1.70;1.60;;;;;;;0.77;100.00;99350.00;3800989;74;396084;-77
2021/01/09 02:31:38;;;;;;;3.93;1.67;;;;;;;0.72;100.00;99355.05;3799882;76;396087;-77
2021/01/09 02:37:00;;;;;;;3.77;0.93;;;;;;;0.64;100.00;99337.52;3800254;76;396166;-77
2021/01/09 02:42:22;;;;;;;1.80;1.33;;;;;;;0.63;100.00;99348.11;3799766;77;394009;-77
2021/01/09 02:47:43;;;;;;;1.20;1.00;;;;;;;0.67;100.00;99353.08;3800085;77;396095;-77
2021/01/09 02:53:04;;;;;;;2.00;1.17;;;;;;;0.62;100.00;99354.64;3800116;77;394244;-77
2021/01/09 02:58:26;;;;;;;1.23;1.13;;;;;;;0.60;100.00;99353.63;3800245;77;392169;-77
2021/01/09 03:03:47;;;;;;;1.47;1.27;;;;;;;0.48;100.00;99350.81;3800617;77;387974;-77
2021/01/09 03:09:08;;;;;;;2.27;2.17;;;;;;;0.42;100.00;99360.78;3800351;77;390116;-77
2021/01/09 03:14:29;;;;;;;1.20;1.10;;;;;;;0.59;100.00;99356.09;3799942;76;396129;-76
2021/01/09 03:19:51;;;;;;;0.80;0.60;;;;;;;0.81;100.00;99359.27;3801316;77;383811;-77
2021/01/09 03:25:14;;;;;;;2.40;2.03;;;;;;;0.76;100.00;99360.05;3799904;76;394009;-77
2021/01/09 03:30:35;;;;;;;3.90;2.07;;;;;;;0.71;100.00;99368.91;3800085;77;396281;-77
2021/01/09 03:35:56;;;;;;;1.60;1.50;;;;;;;0.64;100.00;99372.70;3800445;76;395082;-77
2021/01/09 03:41:18;;;;;;;0.87;0.70;;;;;;;0.47;100.00;99376.28;3800901;77;383780;-77
2021/01/09 03:46:39;;;;;;;1.70;1.60;;;;;;;0.66;100.00;99375.86;3799934;77;396115;-77
2021/01/09 03:52:00;;;;;;;1.87;1.33;;;;;;;0.69;100.00;99377.92;3799766;76;396350;-76
2021/01/09 03:57:22;;;;;;;3.70;3.50;;;;;;;0.47;100.00;99381.70;3799558;77;391933;-76
2021/01/09 04:02:43;;;;;;;2.30;1.53;;;;;;;0.60;100.00;99386.10;3799879;77;394022;-76
2021/01/09 04:08:04;;;;;;;1.30;0.80;;;;;;;0.65;100.00;99394.59;3800689;76;393989;-76
2021/01/09 04:13:25;;;;;;;1.73;1.63;;;;;;;0.64;100.00;99386.23;3800271;77;392103;-76
2021/01/09 04:18:46;;;;;;;2.60;1.80;;;;;;;0.61;100.00;99386.88;3800269;76;394206;-76
2021/01/09 04:24:08;;;;;;;1.03;0.80;;;;;;;0.42;100.00;99382.44;3800674;77;387933;-76
2021/01/09 04:29:31;;;;;;;0.90;0.80;;;;;;;0.43;100.00;99382.13;3801233;76;389862;-76
2021/01/09 04:34:52;;;;;;;2.20;1.00;;;;;;;0.50;100.00;99383.77;3799864;76;396339;-76
2021/01/09 04:40:13;;;;;;;1.90;1.50;;;;;;;0.65;100.00;99389.19;3800289;77;396320;-76
2021/01/09 04:45:35;;;;;;;2.40;1.37;;;;;;;0.46;100.00;99393.63;3800315;76;394987;-76
2021/01/09 04:50:57;;;;;;;1.17;1.07;;;;;;;0.54;100.00;99394.73;3800639;77;392146;-76
2021/01/09 04:56:19;;;;;;;2.17;2.07;;;;;;;0.50;100.00;99397.29;3772033;77;396332;-76
2021/01/09 05:01:46;;;;;;;0.80;0.60;;;;;;;0.59;100.00;99396.69;3801091;76;383564;-76
2021/01/09 05:07:07;;;;;;;2.20;2.10;;;;;;;0.40;100.00;99408.47;3799827;77;396358;-76
2021/01/09 05:12:32;;;;;;;1.33;1.23;;;;;;;0.44;100.00;99418.90;3800009;76;392958;-76
2021/01/09 05:17:53;;;;;;;0.93;0.83;;;;;;;0.32;100.00;99415.28;3800833;77;383588;-76
2021/01/09 05:23:16;;;;;;;1.37;1.27;;;;;;;0.39;100.00;99422.34;3799900;77;396101;-76
2021/01/09 05:28:40;;;;;;;1.70;1.60;;;;;;;0.34;100.00;99422.50;3800753;77;383805;-76
2021/01/09 05:34:01;;;;;;;1.57;0.60;;;;;;;0.29;100.00;99426.17;3800804;77;390338;-76
2021/01/09 05:39:23;;;;;;;0.80;0.50;;;;;;;0.17;100.00;99441.48;3801336;76;383579;-76
2021/01/09 05:44:45;;;;;;;1.73;0.90;;;;;;;0.26;100.00;99446.31;3800663;77;383580;-76
2021/01/09 05:50:09;;;;;;;2.40;1.13;;;;;;;0.26;100.00;99459.84;3800397;77;387767;-76
2021/01/09 05:55:33;;;;;;;4.87;1.33;;;;;;;0.21;100.00;99458.67;3799867;77;396335;-76
2021/01/09 06:00:57;;;;;;;1.47;1.37;;;;;;;0.16;100.00;99465.63;3801172;74;396166;-76
2021/01/09 06:06:47;;;;;;;3.57;1.40;;;;;;;0.20;100.00;99472.74;3800320;76;389215;-76
2021/01/09 06:12:09;;;;;;;1.00;0.90;;;;;;;0.06;100.00;99472.72;3800990;76;383556;-76
2021/01/09 06:17:35;;;;;;;2.70;2.13;;;;;;;-0.11;100.00;99478.15;3800955;74;396101;-78
2021/01/09 06:22:58;;;;;;;6.30;1.73;;;;;;;-0.30;100.00;99482.30;3800358;76;394381;-77
2021/01/09 06:28:21;;;;;;;1.47;1.37;;;;;;;-0.32;100.00;99482.59;3800394;77;385640;-77
2021/01/09 06:33:43;;;;;;;7.40;1.67;;;;;;;-0.50;100.00;99490.49;3799786;76;396308;-78
2021/01/09 06:39:05;;;;;;;1.20;0.90;;;;;;;-0.76;100.00;99491.55;3800410;76;395062;-77
2021/01/09 06:44:26;;;;;;;1.83;0.80;;;;;;;-0.94;100.00;99495.89;3800872;77;383569;-77
2021/01/09 06:49:47;;;;;;;2.70;1.17;;;;;;;-1.09;100.00;99497.11;3800197;76;392100;-78
2021/01/09 06:55:09;;;;;;;2.07;1.73;;;;;;;-1.21;100.00;99506.95;3800096;76;389776;-77
2021/01/09 07:00:30;;;;;;;1.73;0.83;;;;;;;-1.36;100.00;99506.80;3800743;77;383537;-77
2021/01/09 07:05:54;;;;;;;0.80;0.50;;;;;;;-1.31;100.00;99504.52;3801183;76;383796;-75
2021/01/09 07:11:15;;;;;;;1.00;0.83;;;;;;;-1.37;100.00;99517.35;3800998;77;383788;-74
2021/01/09 07:16:38;;;;;;;5.33;2.30;;;;;;;-1.38;100.00;99517.67;3800102;77;383812;-75
2021/01/09 07:22:02;;;;;;;1.33;1.10;;;;;;;-1.45;100.00;99525.39;3799727;77;395021;-76
2021/01/09 07:27:23;;;;;;;2.17;1.97;;;;;;;-1.40;100.00;99531.45;3800216;74;396069;-74
2021/01/09 07:32:47;;;;;;;2.10;1.33;;;;;;;-1.40;100.00;99535.50;3799618;77;394000;-74
2021/01/09 07:38:08;;;;;;;0.90;0.67;;;;;;;-1.45;100.00;99541.58;3800901;77;389815;-74
2021/01/09 07:43:37;;;;;;;6.33;2.27;;;;;;;-1.44;100.00;99538.59;3799742;77;393976;-75
2021/01/09 07:48:59;;;;;;;1.43;1.33;;;;;;;-1.39;100.00;99551.16;3799940;77;396088;-75
2021/01/09 07:54:38;;;;;;;0.80;0.50;;;;;;;-1.48;100.00;99557.05;3801007;76;383579;-75
2021/01/09 08:00:02;;;;;;;3.17;1.77;;;;;;;-1.19;100.00;99560.03;3799756;76;396142;-75
2021/01/09 08:05:24;;;;;;;0.93;0.83;;;;;;;-1.14;100.00;99568.80;3800421;77;392967;-74
2021/01/09 08:10:45;;;;;;;2.90;2.67;;;;;;;-1.31;100.00;99570.06;3799172;76;396320;-74
2021/01/09 08:16:06;;;;;;;1.23;1.13;;;;;;;-1.34;100.00;99583.38;3799911;76;390016;-75
2021/01/09 08:21:28;;;;;;;2.17;2.07;;;;;;;-1.08;100.00;99587.02;3799647;76;396290;-75
2021/01/09 08:26:53;;;;;;;1.23;1.13;;;;;;;-0.96;100.00;99589.91;3800656;77;387921;-76
2021/01/09 08:32:15;;;;;;;1.93;1.10;;;;;;;-0.84;100.00;99592.25;3800703;76;383568;-75
2021/01/09 08:37:36;;;;;;;4.77;4.47;;;;;;;-0.59;100.00;99592.34;3799945;77;395254;-75
2021/01/09 08:43:03;;;;;;;2.37;1.10;;;;;;;-0.31;100.00;99603.13;3800502;76;383776;-75
2021/01/09 08:48:32;;;;;;;12.83;3.90;;;;;;;-0.01;100.00;99601.65;3801002;74;396307;-75
2021/01/09 08:53:59;;;;;;;1.23;0.80;;;;;;;0.34;100.00;99605.13;3801743;74;385648;-75
2021/01/09 08:59:20;;;;;;;5.77;1.83;;;;;;;0.64;100.00;99608.22;3800545;77;388778;-76
2021/01/09 09:04:43;;;;;;;4.87;3.33;;;;;;;0.90;100.00;99612.44;3799925;77;396122;-75
2021/01/09 09:10:06;;;;;;;2.57;2.20;;;;;;;1.31;100.00;99614.74;3800076;77;396077;-75
2021/01/09 09:15:29;;;;;;;3.13;2.77;;;;;;;1.98;100.00;99621.68;3801085;74;394232;-76
2021/01/09 09:20:52;;;;;;;1.07;0.97;;;;;;;2.68;100.00;99615.58;3800384;77;392146;-76
2021/01/09 09:26:15;;;;;;;1.53;1.27;;;;;;;3.52;100.00;99621.16;3800421;76;383564;-75
2021/01/09 09:31:41;;;;;;;1.60;1.50;;;;;;;3.33;100.00;99624.45;3793161;77;393978;-75
2021/01/09 09:37:02;;;;;;;3.13;1.33;;;;;;;2.55;100.00;99631.61;3800020;77;394270;-75
2021/01/09 09:42:27;;;;;;;7.03;2.53;;;;;;;2.05;100.00;99643.68;3803232;76;394045;-75
2021/01/09 09:47:51;;;;;;;2.97;1.80;;;;;;;1.87;100.00;99648.17;3811023;76;396031;-75
2021/01/09 09:53:12;;;;;;;5.27;4.10;;;;;;;1.81;100.00;99646.78;3807067;74;395071;-75
2021/01/09 09:58:33;;;;;;;3.00;1.27;;;;;;;2.34;100.00;99649.61;3799269;77;388719;-75
2021/01/09 10:03:54;;;;;;;5.07;2.97;;;;;;;3.51;100.00;99646.77;3799024;77;396088;-76
2021/01/09 10:09:25;;;;;;;3.30;1.37;;;;;;;4.31;100.00;99639.20;3799070;77;394991;-75
2021/01/09 10:14:46;;;;;;;2.30;2.20;;;;;;;4.70;93.81;99636.23;3798658;77;396430;-75
2021/01/09 10:20:08;;;;;;;2.27;2.07;;;;;;;4.99;96.12;99642.90;3799134;77;394032;-73
2021/01/09 10:25:29;;;;;;;3.67;2.00;;;;;;;5.26;91.10;99638.53;3799163;77;389772;-73
2021/01/09 10:30:50;;;;;;;1.20;1.10;;;;;;;5.58;87.14;99634.89;3798986;77;396097;-74
2021/01/09 10:36:12;;;;;;;11.63;5.63;;;;;;;5.67;84.60;99638.81;3798201;77;400195;-74
2021/01/09 10:41:34;;;;;;;2.93;2.57;;;;;;;5.95;86.81;99642.23;3798846;77;396044;-74
2021/01/09 10:46:55;;;;;;;2.80;1.73;;;;;;;6.36;80.85;99644.55;3798496;77;396120;-74
2021/01/09 10:52:16;;;;;;;5.50;2.67;;;;;;;6.95;73.84;99635.42;3798784;77;397037;-74
2021/01/09 10:57:37;;;;;;;1.63;1.50;;;;;;;6.47;73.60;99642.03;3798698;77;394995;-73
2021/01/09 11:02:59;;;;;;;2.30;1.97;;;;;;;5.75;78.24;99648.17;3798778;77;396312;-74
2021/01/09 11:08:21;;;;;;;2.13;2.03;;;;;;;5.79;78.37;99638.17;3772209;77;397061;-74
2021/01/09 11:13:44;;;;;;;2.70;2.50;;;;;;;7.16;73.21;99631.14;3798763;77;397288;-74
2021/01/09 11:19:04;;;;;;;2.17;1.60;;;;;;;7.72;62.01;99630.73;3799632;77;387990;-74
2021/01/09 11:24:27;;;;;;;1.50;1.40;;;;;;;6.78;66.08;99638.59;3799073;77;396124;-74
2021/01/09 11:29:48;;;;;;;3.63;1.33;;;;;;;6.08;66.47;99640.98;3799044;77;395962;-74
2021/01/09 11:35:10;;;;;;;6.70;3.20;;;;;;;5.37;69.26;99643.70;3799065;77;396117;-74
2021/01/09 11:40:31;;;;;;;2.03;1.83;;;;;;;5.15;68.89;99644.30;3798599;77;396309;-75
2021/01/09 11:45:53;;;;;;;2.33;0.80;;;;;;;4.77;68.71;99641.30;3799613;77;383567;-74
2021/01/09 11:51:14;;;;;;;4.40;1.30;;;;;;;4.82;71.47;99645.16;3799160;77;390801;-75
2021/01/09 11:56:35;;;;;;;2.53;1.37;;;;;;;4.51;71.55;99647.78;3799151;77;393941;-74
2021/01/09 12:01:57;;;;;;;3.27;2.97;;;;;;;4.49;71.61;99640.52;3798836;77;396108;-73
2021/01/09 12:07:18;;;;;;;4.27;2.90;;;;;;;4.73;70.15;99638.48;3798914;77;396064;-73
2021/01/09 12:12:39;;;;;;;1.93;1.83;;;;;;;4.68;72.88;99640.68;3799115;77;394011;-73
2021/01/09 12:18:00;;;;;;;4.97;2.20;;;;;;;4.17;73.81;99634.70;3799064;77;394197;-73
2021/01/09 12:23:22;;;;;;;2.00;1.10;;;;;;;3.58;77.36;99640.20;3799118;77;394218;-73
2021/01/09 12:28:43;;;;;;;1.20;1.10;;;;;;;3.17;77.69;99643.10;3799809;77;383827;-73
2021/01/09 12:34:04;;;;;;;1.93;1.13;;;;;;;3.04;79.54;99643.41;3799232;77;393989;-73
2021/01/09 12:39:25;;;;;;;2.63;1.10;;;;;;;3.04;80.48;99633.89;3799496;77;394084;-73
2021/01/09 12:44:47;;;;;;;3.60;2.57;;;;;;;2.96;81.30;99642.94;3798905;77;395466;-73
2021/01/09 12:50:09;;;;;;;1.87;1.77;;;;;;;2.79;81.38;99643.92;3799115;77;391907;-73
2021/01/09 12:55:31;;;;;;;2.27;1.13;;;;;;;2.71;82.02;99638.55;3799370;77;392937;-73
2021/01/09 13:00:52;;;;;;;4.57;3.10;;;;;;;2.64;82.40;99636.40;3798753;77;396108;-73
2021/01/09 13:06:13;;;;;;;1.77;1.67;;;;;;;2.53;84.16;99629.00;3799334;77;388790;-72
2021/01/09 13:11:40;;;;;;;5.53;1.97;;;;;;;2.51;83.34;99626.59;3798852;77;396134;-72
2021/01/09 13:16:59;;;;;;;1.73;1.63;;;;;;;2.46;82.09;99629.53;3799130;77;387979;-73
2021/01/09 13:22:20;;;;;;;0.80;0.50;;;;;;;2.39;83.36;99638.78;3800220;77;383580;-73
2021/01/09 13:27:41;;;;;;;6.93;2.47;;;;;;;2.15;84.86;99646.55;3799012;77;396076;-73
2021/01/09 13:33:03;;;;;;;1.97;1.87;;;;;;;2.29;84.36;99645.72;3799009;77;393143;-73
2021/01/09 13:38:24;;;;;;;14.20;1.73;;;;;;;2.16;84.83;99648.15;3772048;77;397365;-73
2021/01/09 13:43:48;;;;;;;1.00;0.63;;;;;;;2.16;86.54;99655.72;3799605;77;387751;-73
2021/01/09 13:49:10;;;;;;;1.33;1.07;;;;;;;2.03;89.70;99658.13;3799303;77;392919;-74
2021/01/09 13:54:31;;;;;;;1.43;1.33;;;;;;;1.85;91.42;99661.28;3798945;77;396355;-73
2021/01/09 13:59:52;;;;;;;1.33;1.23;;;;;;;1.79;92.92;99666.10;3799079;77;396116;-75
2021/01/09 14:05:15;;;;;;;1.83;1.10;;;;;;;1.74;93.67;99674.98;3799208;77;389815;-73
2021/01/09 14:10:36;;;;;;;1.10;0.63;;;;;;;1.79;91.81;99684.27;3799997;77;383587;-72
2021/01/09 14:15:58;;;;;;;4.10;2.20;;;;;;;1.67;93.25;99682.27;3798709;77;396458;-74
2021/01/09 14:21:22;;;;;;;1.40;1.30;;;;;;;1.62;93.46;99691.14;3799676;77;383809;-75
2021/01/09 14:26:43;;;;;;;3.73;2.50;;;;;;;1.67;92.91;99697.75;3798924;77;396323;-74
2021/01/09 14:32:04;;;;;;;14.20;1.77;;;;;;;1.70;92.46;99699.79;3772148;77;396041;-74
2021/01/09 14:37:25;;;;;;;1.43;0.60;;;;;;;1.87;89.48;99703.78;3799319;77;390081;-76
2021/01/09 14:42:48;;;;;;;1.03;0.93;;;;;;;1.83;89.40;99702.28;3772832;77;383532;-74
2021/01/09 14:48:09;;;;;;;1.90;1.70;;;;;;;1.70;90.37;99706.57;3799490;77;383569;-74
2021/01/09 14:53:30;;;;;;;2.50;1.23;;;;;;;1.72;90.24;99710.57;3799028;77;391952;-74
2021/01/09 14:58:53;;;;;;;0.90;0.70;;;;;;;1.51;89.36;99717.04;3799798;77;383805;-74
2021/01/09 15:04:15;;;;;;;1.10;0.60;;;;;;;1.48;89.94;99719.03;3799865;77;387754;-73
2021/01/09 15:09:36;;;;;;;2.03;1.80;;;;;;;1.41;89.36;99726.09;3798663;77;396350;-74
2021/01/09 15:14:57;;;;;;;1.20;1.10;;;;;;;1.36;91.08;99732.48;3799404;77;383572;-74
2021/01/09 15:20:20;;;;;;;3.20;2.30;;;;;;;1.35;93.64;99741.73;3799175;77;396086;-74
2021/01/09 15:25:41;;;;;;;3.27;2.17;;;;;;;1.30;94.11;99732.39;3798873;77;394283;-74
2021/01/09 15:31:02;;;;;;;4.60;2.80;;;;;;;1.23;95.08;99736.16;3798864;77;396020;-74
2021/01/09 15:36:35;;;;;;;1.97;1.73;;;;;;;1.33;95.31;99734.47;3799109;77;396087;-73
2021/01/09 15:41:58;;;;;;;4.50;2.13;;;;;;;1.29;95.38;99733.54;3799865;77;396315;-73
2021/01/09 15:47:19;;;;;;;2.60;2.23;;;;;;;1.25;95.48;99733.93;3798920;77;393989;-73
2021/01/09 15:52:40;;;;;;;3.63;1.03;;;;;;;1.19;95.98;99737.13;3772437;77;383607;-74
2021/01/09 15:58:01;;;;;;;1.37;1.27;;;;;;;1.21;88.94;99733.55;3799424;77;391945;-74
2021/01/09 16:03:24;;;;;;;1.10;1.00;;;;;;;1.05;90.90;99740.59;3799596;77;395016;-74
2021/01/09 16:08:45;;;;;;;0.83;0.53;;;;;;;0.95;92.09;99743.08;3800207;77;383626;-73
2021/01/09 16:14:06;;;;;;;1.23;0.60;;;;;;;0.98;91.29;99738.35;3800203;77;386053;-74
2021/01/09 16:19:28;;;;;;;1.40;1.13;;;;;;;1.04;90.16;99734.38;3799661;77;388999;-74
2021/01/09 16:24:49;;;;;;;1.53;1.23;;;;;;;0.89;91.06;99736.78;3799520;77;391144;-73
2021/01/09 16:30:11;;;;;;;0.90;0.70;;;;;;;0.85;91.83;99739.88;3800058;77;383580;-73
2021/01/09 16:35:32;;;;;;;1.20;1.10;;;;;;;0.85;92.60;99740.69;3799599;77;392157;-73
2021/01/09 16:40:53;;;;;;;7.10;1.20;;;;;;;0.82;91.49;99734.55;3799387;77;392197;-74
2021/01/09 16:46:15;;;;;;;1.40;1.00;;;;;;;0.83;91.41;99736.14;3799594;77;393251;-74
2021/01/09 16:51:37;;;;;;;1.00;0.77;;;;;;;0.86;91.69;99741.47;3799586;77;391902;-74
2021/01/09 16:56:58;;;;;;;0.90;0.70;;;;;;;0.87;90.49;99734.94;3800407;77;383843;-74
2021/01/09 17:02:20;;;;;;;1.73;1.30;;;;;;;0.83;91.62;99743.48;3799534;77;383765;-74
2021/01/09 17:07:41;;;;;;;16.73;6.27;;;;;;;0.91;91.72;99745.39;3799141;77;396301;-73
2021/01/09 17:13:02;;;;;;;1.50;1.17;;;;;;;0.83;92.62;99741.56;3799711;77;383843;-74
2021/01/09 17:18:23;;;;;;;2.37;2.20;;;;;;;0.77;93.57;99746.66;3799044;77;396093;-74
2021/01/09 17:23:45;;;;;;;1.50;1.30;;;;;;;0.78;94.14;99738.78;3798904;77;396319;-74
2021/01/09 17:29:08;;;;;;;2.97;1.67;;;;;;;0.73;94.34;99740.31;3799166;77;394197;-74
2021/01/09 17:34:29;;;;;;;1.53;1.43;;;;;;;0.80;95.27;99751.70;3799140;77;391957;-74
2021/01/09 17:39:51;;;;;;;7.53;1.33;;;;;;;0.85;94.52;99756.94;3798923;77;392912;-74
2021/01/09 17:45:13;;;;;;;1.40;1.13;;;;;;;0.75;95.04;99757.83;3799170;77;389897;-74
2021/01/09 17:50:35;;;;;;;2.50;2.30;;;;;;;0.66;96.00;99757.56;3799283;77;396118;-74
2021/01/09 17:55:56;;;;;;;1.07;0.90;;;;;;;0.68;94.03;99771.59;3799094;77;391945;-74
2021/01/09 18:01:19;;;;;;;2.40;0.90;;;;;;;0.69;94.18;99767.77;3799413;77;392224;-73
2021/01/09 18:06:41;;;;;;;0.90;0.70;;;;;;;0.60;95.91;99774.55;3800235;77;389885;-73
2021/01/09 18:12:02;;;;;;;1.57;1.47;;;;;;;0.73;95.54;99769.52;3799234;77;391864;-74
2021/01/09 18:17:23;;;;;;;1.40;0.80;;;;;;;0.71;96.45;99773.67;3799486;77;389882;-74
2021/01/09 18:22:44;;;;;;;2.47;0.80;;;;;;;0.72;97.06;99792.30;3799916;77;383665;-74
2021/01/09 18:34:20;;;;;;;5.00;1.37;;;;;;;0.64;99.34;99793.08;3799197;77;392143;-75
2021/01/09 18:39:41;;;;;;;0.90;0.50;;;;;;;0.60;98.58;99794.03;3800180;77;383625;-75
2021/01/09 18:45:04;;;;;;;1.40;1.30;;;;;;;0.57;99.24;99797.36;3799197;77;396307;-75
2021/01/09 18:50:25;;;;;;;3.40;2.90;;;;;;;0.62;100.00;99797.23;3799027;77;396359;-75
2021/01/09 18:55:47;;;;;;;2.00;1.70;;;;;;;0.59;100.00;99798.66;3799088;77;395075;-75
2021/01/09 19:01:08;;;;;;;3.77;1.30;;;;;;;0.67;100.00;99804.64;3799564;77;394049;-75
2021/01/09 19:06:29;;;;;;;0.90;0.77;;;;;;;0.64;100.00;99812.03;3799841;77;392087;-75
2021/01/09 19:11:55;;;;;;;7.47;2.93;;;;;;;0.54;100.00;99816.96;3799186;77;396156;-75
2021/01/09 19:17:16;;;;;;;1.20;1.10;;;;;;;0.65;100.00;99822.33;3799641;77;383576;-75
2021/01/09 19:22:38;;;;;;;0.90;0.63;;;;;;;0.53;100.00;99822.12;3800436;77;383813;-75
2021/01/09 19:28:00;;;;;;;1.10;0.90;;;;;;;0.53;100.00;99828.33;3798019;77;390194;-75
2021/01/09 19:33:21;;;;;;;2.07;1.90;;;;;;;0.49;98.43;99831.44;3798740;77;396324;-75
2021/01/09 19:38:42;;;;;;;2.10;1.40;;;;;;;0.43;100.00;99822.42;3799258;77;394017;-75
2021/01/09 19:44:04;;;;;;;1.00;0.63;;;;;;;0.49;100.00;99817.09;3799969;77;387885;-75
2021/01/09 19:49:25;;;;;;;1.00;0.80;;;;;;;0.65;100.00;99820.97;3800112;77;383799;-75
2021/01/09 19:54:46;;;;;;;1.00;0.80;;;;;;;0.65;99.99;99830.45;3773169;77;387829;-75
2021/01/09 20:00:07;;;;;;;0.90;0.70;;;;;;;0.69;99.59;99830.82;3800687;77;383773;-75
2021/01/09 20:05:28;;;;;;;1.10;0.93;;;;;;;0.60;99.96;99831.94;3799588;77;394055;-75
2021/01/09 20:10:49;;;;;;;0.80;0.50;;;;;;;0.57;100.00;99832.55;3800551;77;383773;-75
2021/01/09 20:16:11;;;;;;;2.77;0.83;;;;;;;0.65;100.00;99833.16;3799784;77;393957;-75
2021/01/09 20:21:32;;;;;;;1.73;1.63;;;;;;;0.59;100.00;99836.56;3799813;77;392237;-75
2021/01/09 20:26:54;;;;;;;2.30;2.10;;;;;;;0.49;100.00;99844.97;3798859;77;395354;-75
2021/01/09 20:32:16;;;;;;;5.47;2.20;;;;;;;0.52;100.00;99853.02;3799479;77;391887;-75
2021/01/09 20:37:43;;;;;;;1.87;1.77;;;;;;;0.46;100.00;99861.83;3799337;77;396127;-75
2021/01/09 20:43:04;;;;;;;1.80;1.70;;;;;;;0.52;100.00;99859.78;3800630;77;391848;-75
2021/01/09 20:48:25;;;;;;;1.43;0.77;;;;;;;0.40;100.00;99862.31;3799748;77;394307;-75
2021/01/09 20:53:49;;;;;;;7.77;1.90;;;;;;;0.39;100.00;99865.55;3799818;77;383588;-74
2021/01/09 20:59:10;;;;;;;2.93;2.73;;;;;;;0.53;100.00;99869.50;3799095;77;390842;-75
2021/01/09 21:04:31;;;;;;;7.50;2.10;;;;;;;0.58;100.00;99867.98;3799426;77;395029;-75
2021/01/09 21:09:52;;;;;;;0.90;0.57;;;;;;;0.56;100.00;99862.11;3800574;77;383907;-74
2021/01/09 21:15:14;;;;;;;2.50;2.17;;;;;;;0.51;100.00;99869.02;3799234;77;396094;-75
2021/01/09 21:20:36;;;;;;;1.97;1.27;;;;;;;0.63;100.00;99863.80;3799568;77;395031;-75
2021/01/09 21:25:57;;;;;;;0.90;0.70;;;;;;;0.55;100.00;99862.66;3800245;77;385617;-75
2021/01/09 21:31:22;;;;;;;2.30;1.50;;;;;;;0.52;100.00;99863.84;3799326;77;396079;-75
2021/01/09 21:36:44;;;;;;;1.47;1.03;;;;;;;0.45;100.00;99855.39;3799941;77;383788;-75
2021/01/09 21:42:06;;;;;;;1.67;1.47;;;;;;;0.34;100.00;99855.42;3801086;76;383581;-75
2021/01/09 21:47:27;;;;;;;0.90;0.80;;;;;;;0.16;100.00;99859.98;3799750;77;392146;-75
2021/01/09 21:52:48;;;;;;;1.00;0.83;;;;;;;-0.03;100.00;99860.52;3800002;77;383850;-75
2021/01/09 21:58:10;;;;;;;1.43;1.33;;;;;;;-0.06;100.00;99863.87;3799481;77;391961;-75
2021/01/09 22:03:31;;;;;;;1.20;0.90;;;;;;;-0.08;100.00;99858.75;3799791;77;395063;-75
2021/01/09 22:08:53;;;;;;;3.57;2.20;;;;;;;-0.05;100.00;99863.55;3798914;77;396135;-75
2021/01/09 22:14:15;;;;;;;1.10;1.00;;;;;;;0.04;100.00;99872.50;3799638;77;392971;-75
2021/01/09 22:19:37;;;;;;;2.50;1.53;;;;;;;0.02;100.00;99869.30;3799084;77;396316;-75
2021/01/09 22:24:58;;;;;;;2.60;1.50;;;;;;;0.04;100.00;99869.23;3799134;77;391899;-75
2021/01/09 22:30:20;;;;;;;2.70;2.20;;;;;;;0.30;100.00;99874.77;3799678;77;383800;-75
2021/01/09 22:35:41;;;;;;;7.27;2.80;;;;;;;0.17;100.00;99879.17;3799304;77;396036;-75
2021/01/09 22:41:03;;;;;;;1.67;1.37;;;;;;;0.17;100.00;99875.66;3799837;77;386678;-75
2021/01/09 22:46:24;;;;;;;0.90;0.70;;;;;;;0.35;100.00;99885.44;3800340;77;385667;-75
2021/01/09 22:51:54;;;;;;;1.17;0.97;;;;;;;0.42;100.00;99874.41;3799195;77;393985;-75
2021/01/09 22:57:15;;;;;;;0.90;0.80;;;;;;;0.41;100.00;99866.59;3799992;77;383567;-75
2021/01/09 23:02:36;;;;;;;1.43;1.30;;;;;;;0.29;100.00;99869.11;3798976;77;396269;-75
2021/01/09 23:07:57;;;;;;;0.80;0.60;;;;;;;0.22;100.00;99863.36;3800327;77;383595;-75
2021/01/09 23:13:19;;;;;;;1.30;1.17;;;;;;;0.40;100.00;99858.25;3799430;77;396076;-75
2021/01/09 23:18:40;;;;;;;1.27;1.17;;;;;;;0.33;100.00;99853.83;3799522;77;391925;-75
2021/01/09 23:24:01;;;;;;;1.83;1.30;;;;;;;0.36;100.00;99849.97;3799286;77;396277;-75
2021/01/09 23:29:23;;;;;;;1.00;0.90;;;;;;;0.32;100.00;99848.98;3801150;77;383768;-75
2021/01/09 23:34:44;;;;;;;1.17;1.07;;;;;;;0.30;100.00;99853.12;3799811;77;393050;-75
2021/01/09 23:40:08;;;;;;;26.73;1.43;;;;;;;0.18;100.00;99851.55;3798887;77;398404;-75
2021/01/09 23:45:30;;;;;;;1.60;1.50;;;;;;;0.14;100.00;99850.59;3800084;77;396084;-75
2021/01/09 23:50:52;;;;;;;0.80;0.70;;;;;;;0.22;100.00;99849.27;3799978;77;383561;-74
2021/01/09 23:56:13;;;;;;;1.00;0.70;;;;;;;0.23;100.00;99851.43;3799930;77;387793;-75
